Terminal Aerodrome Forecast
Issued by NWS

Home | Current Version | Previous Version | Graphics & Text | Print | Product List | Glossary On
Versions: 1 2 3 4 5 6 7 8 9 10 11 12 13 14 15 16 17
107
FTUS45 KGGW 300520
TAFSDY
TAF
KSDY 300520Z 3006/0106 31017G25KT 5SM -SN BLSN OVC015
     FM301200 31014KT 5SM -SN OVC009
     FM302100 31009KT P6SM VCSH OVC010
     FM010000 31006KT P6SM OVC010=

USA.gov is the U.S. government's official web portal to all federal, state and local government web resources and services.